N211KK CYTZ-CYTZ
Flight info
| Callsign | N211KK |
|---|---|
| Flight time | 0h 2m |
| Altitude | 1600 |
| Route | VFR PATTERN |
| Aircraft | C152 |
Departure
| Time | 2026-05-09 02:12 |
|---|---|
| Airport | Billy Bishop Toronto City Airport (CYTZ) |
Arrival
| Time | 2026-05-09 02:15 |
|---|---|
| Airport | Billy Bishop Toronto City Airport (CYTZ) |
| Time | Latitude | Longitude | Altitude | Speed | Heading |
|---|---|---|---|---|---|
| 2026-05-09 02:06 | 43.63149 | -79.39287 | 254 ft | 0 kts | 239° |
| 2026-05-09 02:09 | 43.63140 | -79.39310 | 254 ft | 8 kts | 241° |
| 2026-05-09 02:09 | 43.63109 | -79.39296 | 254 ft | 8 kts | 130° |
| 2026-05-09 02:09 | 43.63080 | -79.39234 | 259 ft | 10 kts | 76° |
| 2026-05-09 02:09 | 43.63107 | -79.39100 | 257 ft | 13 kts | 69° |
| 2026-05-09 02:10 | 43.63131 | -79.39025 | 255 ft | 0 kts | 69° |
| 2026-05-09 02:10 | 43.63132 | -79.39023 | 255 ft | 3 kts | 69° |
| 2026-05-09 02:11 | 43.63121 | -79.38954 | 254 ft | 9 kts | 171° |
| 2026-05-09 02:11 | 43.63074 | -79.39005 | 255 ft | 10 kts | 242° |
| 2026-05-09 02:11 | 43.63011 | -79.39250 | 259 ft | 53 kts | 252° |
| 2026-05-09 02:11 | 43.62898 | -79.39805 | 419 ft | 59 kts | 251° |
| 2026-05-09 02:12 | 43.62824 | -79.40329 | 639 ft | 52 kts | 251° |
| 2026-05-09 02:12 | 43.62636 | -79.40719 | 790 ft | 51 kts | 200° |
| 2026-05-09 02:12 | 43.62272 | -79.40690 | 913 ft | 62 kts | 160° |
| 2026-05-09 02:12 | 43.61987 | -79.40157 | 953 ft | 83 kts | 101° |
| 2026-05-09 02:13 | 43.62138 | -79.39384 | 1048 ft | 85 kts | 65° |
| 2026-05-09 02:13 | 43.62387 | -79.38639 | 1124 ft | 83 kts | 71° |
| 2026-05-09 02:13 | 43.62526 | -79.38148 | 1180 ft | 82 kts | 74° |
| 2026-05-09 02:13 | 43.62838 | -79.37218 | 1291 ft | 81 kts | 46° |
| 2026-05-09 02:14 | 43.63407 | -79.36913 | 1151 ft | 97 kts | 348° |
| 2026-05-09 02:14 | 43.63759 | -79.37552 | 876 ft | 84 kts | 260° |
| 2026-05-09 02:14 | 43.63537 | -79.38004 | 735 ft | 85 kts | 224° |
| 2026-05-09 02:14 | 43.63186 | -79.38612 | 438 ft | 81 kts | 236° |
| 2026-05-09 02:15 | 43.63000 | -79.39289 | 260 ft | 67 kts | 249° |
| 2026-05-09 02:15 | 43.62927 | -79.39622 | 258 ft | 7 kts | 333° |
| 2026-05-09 02:15 | 43.62939 | -79.39674 | 260 ft | 4 kts | 244° |
| 2026-05-09 02:15 | 43.62935 | -79.39679 | 257 ft | 0 kts | 202° |